Terminal Aerodrome Forecast
Issued by NWS Charleston, WV

Current Version | Previous Version | Graphics & Text | Print | Product List | Glossary On
Versions: 1 2 3 4 5 6 7 8 9 10 11 12 13 14 15 16 17 18 19 20 21 22 23 24
000
FTUS41 KRLX 311700
TAFPKB
TAF
KPKB 311734Z 3118/0118 VRB03KT 6SM -SHRA BKN020 OVC040
     FM312300 00000KT 3SM -SHRA BR SCT015 OVC030
     FM010600 33005KT 5SM -SHRA BR OVC010
     FM011100 36008KT 5SM BR OVC010
     FM011300 36008G13KT 5SM BR OVC015
     FM011400 35008G13KT P6SM OVC015
     FM011600 35009G15KT P6SM OVC025=

USA.gov is the U.S. government's official web portal to all federal, state and local government web resources and services.